Time;durP1;ratioP1;P1;durP2;ratioP2;P2;SDS_P1;SDS_P2;PMS_P1;PMS_P2;Temp;Humidity;BMP_temperature;BMP_pressure;BME280_temperature;BME280_humidity;BME280_pressure;Samples;Min_cycle;Max_cycle;Signal;HPM_P1;HPM_P2
2022/09/30 00:01:13;;;;;;;6.63;6.03;;;;;;;-145.23;100.00;58621.06;4957686;28;20227;-56
2022/09/30 00:03:41;;;;;;;5.70;5.10;;;;;;;-145.23;100.00;58621.06;4961440;28;20260;-57
2022/09/30 00:06:07;;;;;;;6.80;6.07;;;;;;;-145.23;100.00;58621.06;4957436;28;20246;-57
2022/09/30 00:08:34;;;;;;;6.43;5.83;;;;;;;-145.23;100.00;58621.06;4962547;28;20265;-57
2022/09/30 00:11:02;;;;;;;6.17;5.60;;;;;;;-145.23;100.00;58621.06;4959298;28;20318;-57
2022/09/30 00:13:29;;;;;;;6.50;5.90;;;;;;;-145.23;100.00;58621.06;4950333;28;20306;-57
2022/09/30 00:15:56;;;;;;;6.57;5.97;;;;;;;-145.23;100.00;58621.06;4947739;28;20260;-57
2022/09/30 00:18:22;;;;;;;6.73;6.00;;;;;;;-145.23;100.00;58621.06;4956312;28;21133;-57
2022/09/30 00:20:52;;;;;;;6.20;5.60;;;;;;;-145.23;100.00;58621.06;4955161;28;20246;-57
2022/09/30 00:23:20;;;;;;;6.60;5.90;;;;;;;-145.23;100.00;58621.06;4958217;28;20243;-57
2022/09/30 00:25:46;;;;;;;7.07;5.93;;;;;;;-145.23;100.00;58621.06;4958441;28;20234;-57
2022/09/30 00:28:13;;;;;;;6.13;5.53;;;;;;;-145.23;100.00;58621.06;4959041;28;20238;-57
2022/09/30 00:30:40;;;;;;;6.47;5.87;;;;;;;-145.23;100.00;58621.06;4961658;28;20227;-57
2022/09/30 00:33:07;;;;;;;5.63;5.13;;;;;;;-145.23;100.00;58621.06;4957291;28;20243;-57
2022/09/30 00:35:34;;;;;;;6.17;5.57;;;;;;;-145.23;100.00;58621.06;4954743;28;20235;-57
2022/09/30 00:38:02;;;;;;;6.73;5.53;;;;;;;-145.23;100.00;58621.06;4950270;28;20242;-57
2022/09/30 00:40:29;;;;;;;7.13;5.77;;;;;;;-145.23;100.00;58621.06;4963851;28;20231;-57
2022/09/30 00:42:55;;;;;;;5.83;5.13;;;;;;;-145.23;100.00;58621.06;4962595;28;20258;-57
2022/09/30 00:45:22;;;;;;;5.37;4.87;;;;;;;-145.23;100.00;58621.06;4949813;28;20239;-56
2022/09/30 00:47:52;;;;;;;5.67;4.77;;;;;;;-145.23;100.00;58621.06;4957898;28;20257;-57
2022/09/30 00:50:44;;;;;;;8.33;5.63;;;;;;;-145.23;100.00;58621.06;4950007;28;20246;-56
2022/09/30 00:53:18;;;;;;;6.83;6.23;;;;;;;-145.23;100.00;58621.06;4954798;28;20289;-56
2022/09/30 00:55:48;;;;;;;6.57;5.97;;;;;;;-145.23;100.00;58621.06;4957869;28;20318;-56
2022/09/30 00:58:19;;;;;;;6.13;5.53;;;;;;;-145.23;100.00;58621.06;4959010;28;20235;-57
2022/09/30 01:00:45;;;;;;;5.47;4.97;;;;;;;-145.23;100.00;58621.06;4962611;28;20236;-57
2022/09/30 01:03:12;;;;;;;6.53;5.83;;;;;;;-145.23;100.00;58621.06;4961095;28;20237;-56
2022/09/30 01:05:39;;;;;;;6.20;5.60;;;;;;;-145.23;100.00;58621.06;4956866;28;20242;-57
2022/09/30 01:08:07;;;;;;;6.97;5.83;;;;;;;-145.23;100.00;58621.06;4955886;28;20243;-57
2022/09/30 01:10:35;;;;;;;7.33;6.67;;;;;;;-145.23;100.00;58621.06;4961006;28;20239;-57
2022/09/30 01:13:04;;;;;;;6.00;5.40;;;;;;;-145.23;100.00;58621.06;4957439;28;20250;-57
2022/09/30 01:15:43;;;;;;;6.50;5.80;;;;;;;-145.23;100.00;58621.06;4955610;28;20326;-57
2022/09/30 01:18:18;;;;;;;6.00;5.50;;;;;;;-145.23;100.00;58621.06;4960784;28;20241;-57
2022/09/30 01:20:58;;;;;;;5.83;5.27;;;;;;;-145.23;100.00;58621.06;4962660;28;20322;-56
2022/09/30 01:24:06;;;;;;;6.63;6.13;;;;;;;-145.23;100.00;58621.06;4961766;28;20238;-57
2022/09/30 01:27:06;;;;;;;7.23;6.53;;;;;;;-145.23;100.00;58621.06;4914338;29;20510;-56
2022/09/30 01:30:03;;;;;;;7.57;6.53;;;;;;;-145.23;100.00;58621.06;4958105;28;20309;-57
2022/09/30 01:33:02;;;;;;;6.47;5.80;;;;;;;-145.23;100.00;58621.06;4959897;28;20258;-57
2022/09/30 01:35:54;;;;;;;7.33;6.67;;;;;;;-145.23;100.00;58621.06;4966118;28;20234;-57
2022/09/30 01:38:27;;;;;;;7.23;6.47;;;;;;;-145.23;100.00;58621.06;4963008;28;20320;-56
2022/09/30 01:41:01;;;;;;;7.87;6.97;;;;;;;-145.23;100.00;58621.06;4962815;28;20710;-56
2022/09/30 01:43:35;;;;;;;6.63;6.03;;;;;;;-145.23;100.00;58621.06;4961814;28;20256;-56
2022/09/30 01:46:07;;;;;;;9.07;6.80;;;;;;;-145.23;100.00;58621.06;4958033;28;20748;-56
2022/09/30 01:48:41;;;;;;;6.33;5.73;;;;;;;-145.23;100.00;58621.06;4962105;28;20238;-56
2022/09/30 01:51:10;;;;;;;7.67;6.90;;;;;;;-145.23;100.00;58621.06;4961860;28;20264;-56
2022/09/30 01:53:40;;;;;;;7.80;6.40;;;;;;;-145.23;100.00;58621.06;4962295;28;20241;-58
2022/09/30 01:56:13;;;;;;;9.27;6.60;;;;;;;-145.23;100.00;58621.06;4964403;28;20705;-57
2022/09/30 01:58:43;;;;;;;11.27;7.30;;;;;;;-145.23;100.00;58621.06;4962117;28;20238;-58
2022/09/30 02:01:13;;;;;;;6.77;5.87;;;;;;;-145.23;100.00;58621.06;4963833;28;20235;-57
2022/09/30 02:03:45;;;;;;;7.13;6.43;;;;;;;-145.23;100.00;58621.06;4962649;28;20246;-58
2022/09/30 02:06:15;;;;;;;7.87;7.00;;;;;;;-145.23;100.00;58621.06;4963612;28;20286;-57
2022/09/30 02:08:45;;;;;;;7.60;6.83;;;;;;;-145.23;100.00;58621.06;4962664;28;20249;-57
2022/09/30 02:11:14;;;;;;;6.30;5.70;;;;;;;-145.23;100.00;58621.06;4964964;28;20329;-58
2022/09/30 02:13:44;;;;;;;7.60;6.20;;;;;;;-145.23;100.00;58621.06;4964953;28;20387;-57
2022/09/30 02:16:16;;;;;;;7.10;5.70;;;;;;;-145.23;100.00;58621.06;4964468;28;20330;-57
2022/09/30 02:18:49;;;;;;;6.60;5.93;;;;;;;-145.23;100.00;58621.06;4963555;28;20237;-57
2022/09/30 02:21:19;;;;;;;6.53;5.93;;;;;;;-145.23;100.00;58621.06;4955397;28;20243;-58
2022/09/30 02:23:47;;;;;;;7.17;6.47;;;;;;;-145.23;100.00;58621.06;4963761;28;20297;-57
2022/09/30 02:26:18;;;;;;;6.70;5.87;;;;;;;-145.23;100.00;58621.06;4958888;28;20230;-58
2022/09/30 02:28:47;;;;;;;7.70;6.90;;;;;;;-145.23;100.00;58621.06;4963597;28;20230;-57
2022/09/30 02:31:14;;;;;;;6.97;6.37;;;;;;;-145.23;100.00;58621.06;4961149;28;20231;-57
2022/09/30 02:33:46;;;;;;;7.17;6.57;;;;;;;-145.23;100.00;58621.06;4960488;28;20250;-57
2022/09/30 02:36:19;;;;;;;6.43;5.83;;;;;;;-145.23;100.00;58621.06;4963461;28;20235;-57
2022/09/30 02:38:50;;;;;;;6.20;5.70;;;;;;;-145.23;100.00;58621.06;4961647;28;20247;-58
2022/09/30 02:41:21;;;;;;;6.77;6.17;;;;;;;-145.23;100.00;58621.06;4960490;28;20313;-58
2022/09/30 02:43:48;;;;;;;6.67;6.07;;;;;;;-145.23;100.00;58621.06;4955261;28;20585;-57
2022/09/30 02:46:21;;;;;;;7.27;6.30;;;;;;;-145.23;100.00;58621.06;4960706;28;20227;-58
2022/09/30 02:48:56;;;;;;;5.83;5.33;;;;;;;-145.23;100.00;58621.06;4958816;28;20243;-58
2022/09/30 02:51:34;;;;;;;7.27;6.33;;;;;;;-145.23;100.00;58621.06;4955219;28;20245;-57
2022/09/30 02:54:06;;;;;;;7.20;6.50;;;;;;;-145.23;100.00;58621.06;4956887;28;20295;-58
2022/09/30 02:56:41;;;;;;;6.30;5.70;;;;;;;-145.23;100.00;58621.06;4961405;28;20262;-58
2022/09/30 02:59:08;;;;;;;7.33;6.37;;;;;;;-145.23;100.00;58621.06;4962571;28;20261;-57
2022/09/30 03:01:40;;;;;;;6.43;5.83;;;;;;;-145.23;100.00;58621.06;4961307;28;20265;-57
2022/09/30 03:04:11;;;;;;;7.10;6.40;;;;;;;-145.23;100.00;58621.06;4959498;28;20321;-57
2022/09/30 03:06:39;;;;;;;6.33;5.73;;;;;;;-145.23;100.00;58621.06;4959184;28;20231;-58
2022/09/30 03:09:07;;;;;;;6.03;5.50;;;;;;;-145.23;100.00;58621.06;4962377;28;20281;-57
2022/09/30 03:11:36;;;;;;;6.27;5.67;;;;;;;-145.23;100.00;58621.06;4962251;28;20319;-59
2022/09/30 03:14:23;;;;;;;5.93;5.43;;;;;;;-145.23;100.00;58621.06;4960577;28;20266;-58
2022/09/30 03:17:16;;;;;;;7.23;6.00;;;;;;;-145.23;100.00;58621.06;4957320;28;20902;-58
2022/09/30 03:19:55;;;;;;;5.63;5.03;;;;;;;-145.23;100.00;58621.06;4953812;28;20594;-58
2022/09/30 03:22:40;;;;;;;5.77;5.17;;;;;;;-145.23;100.00;58621.06;4961043;28;20233;-56
2022/09/30 03:25:15;;;;;;;5.97;5.37;;;;;;;-145.23;100.00;58621.06;4955404;28;20309;-56
2022/09/30 03:27:50;;;;;;;6.73;6.03;;;;;;;-145.23;100.00;58621.06;4961241;28;20226;-56
2022/09/30 03:30:19;;;;;;;6.47;5.00;;;;;;;-145.23;100.00;58621.06;4959766;28;20329;-58
2022/09/30 03:33:00;;;;;;;6.80;4.70;;;;;;;-145.23;100.00;58621.06;4956934;28;20301;-56
2022/09/30 03:35:32;;;;;;;6.57;5.87;;;;;;;-145.23;100.00;58621.06;4962873;28;20316;-56
2022/09/30 03:38:02;;;;;;;6.10;5.50;;;;;;;-145.23;100.00;58621.06;4961455;28;20235;-56
2022/09/30 03:40:32;;;;;;;5.03;4.63;;;;;;;-145.23;100.00;58621.06;4960848;28;20614;-56
2022/09/30 03:43:04;;;;;;;9.20;6.73;;;;;;;-145.23;100.00;58621.06;4956382;28;20236;-56
2022/09/30 03:45:34;;;;;;;6.63;5.97;;;;;;;-145.23;100.00;58621.06;4957911;28;20449;-56
2022/09/30 03:48:04;;;;;;;7.10;6.40;;;;;;;-145.23;100.00;58621.06;4963139;28;20327;-58
2022/09/30 03:50:33;;;;;;;7.37;6.40;;;;;;;-145.23;100.00;58621.06;4958317;28;20268;-57
2022/09/30 03:53:01;;;;;;;7.17;6.57;;;;;;;-145.23;100.00;58621.06;4956344;28;20277;-57
2022/09/30 03:55:28;;;;;;;7.27;6.47;;;;;;;-145.23;100.00;58621.06;4959273;28;20712;-57
2022/09/30 03:57:56;;;;;;;7.40;6.57;;;;;;;-145.23;100.00;58621.06;4960239;28;20248;-57
2022/09/30 04:00:23;;;;;;;7.47;6.70;;;;;;;-145.23;100.00;58621.06;4961605;28;20237;-57
2022/09/30 04:02:50;;;;;;;7.23;6.50;;;;;;;-145.23;100.00;58621.06;4957809;28;20293;-57
2022/09/30 04:05:17;;;;;;;7.43;5.93;;;;;;;-145.23;100.00;58621.06;4954789;28;20223;-57
2022/09/30 04:07:46;;;;;;;6.50;5.77;;;;;;;-145.23;100.00;58621.06;4961516;28;20277;-57
2022/09/30 04:10:13;;;;;;;7.43;6.70;;;;;;;-145.23;100.00;58621.06;4960119;28;20245;-57
2022/09/30 04:12:41;;;;;;;7.50;6.47;;;;;;;-145.23;100.00;58621.06;4961631;28;20222;-57
2022/09/30 04:15:09;;;;;;;6.93;6.23;;;;;;;-145.23;100.00;58621.06;4959284;28;20241;-57
2022/09/30 04:17:36;;;;;;;8.00;6.60;;;;;;;-145.23;100.00;58621.06;4956638;28;20606;-58
2022/09/30 04:20:03;;;;;;;7.97;6.53;;;;;;;-145.23;100.00;58621.06;4959950;28;20255;-57
2022/09/30 04:22:30;;;;;;;6.70;6.00;;;;;;;-145.23;100.00;58621.06;4961164;28;20238;-59
2022/09/30 04:24:59;;;;;;;6.60;5.97;;;;;;;-145.23;100.00;58621.06;4961569;28;20771;-56
2022/09/30 04:27:26;;;;;;;7.43;6.63;;;;;;;-145.23;100.00;58621.06;4957235;28;20709;-56
2022/09/30 04:29:53;;;;;;;6.70;5.93;;;;;;;-145.23;100.00;58621.06;4955877;28;20238;-56
2022/09/30 04:32:22;;;;;;;7.13;6.43;;;;;;;-145.23;100.00;58621.06;4961597;28;20253;-56
2022/09/30 04:34:49;;;;;;;6.73;6.00;;;;;;;-145.23;100.00;58621.06;4957529;28;20326;-56
2022/09/30 04:37:16;;;;;;;6.87;6.17;;;;;;;-145.23;100.00;58621.06;4960605;28;20237;-56
2022/09/30 04:39:43;;;;;;;6.83;6.13;;;;;;;-145.23;100.00;58621.06;4953559;28;20242;-56
2022/09/30 04:42:12;;;;;;;6.60;6.00;;;;;;;-145.23;100.00;58621.06;4956693;28;20238;-56
2022/09/30 04:44:39;;;;;;;11.07;5.73;;;;;;;-145.23;100.00;58621.06;4961038;28;20242;-56
2022/09/30 04:47:06;;;;;;;6.13;5.53;;;;;;;-145.23;100.00;58621.06;4962122;28;20237;-56
2022/09/30 04:49:33;;;;;;;5.60;5.07;;;;;;;-145.23;100.00;58621.06;4960261;28;20239;-56
2022/09/30 04:52:00;;;;;;;5.87;5.30;;;;;;;-145.23;100.00;58621.06;4953457;28;20231;-56
2022/09/30 04:54:27;;;;;;;9.57;5.93;;;;;;;-145.23;100.00;58621.06;4952340;28;20236;-56
2022/09/30 04:56:55;;;;;;;5.30;4.80;;;;;;;-145.23;100.00;58621.06;4960359;28;20262;-56
2022/09/30 04:59:27;;;;;;;7.40;6.20;;;;;;;-145.23;100.00;58621.06;4954876;28;20246;-56
2022/09/30 05:01:54;;;;;;;5.60;5.10;;;;;;;-145.23;100.00;58621.06;4963806;28;20666;-56
2022/09/30 05:04:21;;;;;;;6.13;5.63;;;;;;;-145.23;100.00;58621.06;4960606;28;20247;-58
2022/09/30 05:06:48;;;;;;;7.57;6.00;;;;;;;-145.23;100.00;58621.06;4966194;28;20262;-56
2022/09/30 05:09:15;;;;;;;7.43;6.13;;;;;;;-145.23;100.00;58621.06;4964903;28;20716;-56
2022/09/30 05:11:42;;;;;;;7.53;6.50;;;;;;;-145.23;100.00;58621.06;4965902;28;20239;-56
2022/09/30 05:14:09;;;;;;;6.40;5.80;;;;;;;-145.23;100.00;58621.06;4964453;28;20226;-56
2022/09/30 05:16:37;;;;;;;5.80;5.30;;;;;;;-145.23;100.00;58621.06;4962588;28;20231;-55
2022/09/30 05:19:04;;;;;;;7.40;6.63;;;;;;;-145.23;100.00;58621.06;4962893;28;20258;-55
2022/09/30 05:21:31;;;;;;;7.17;5.67;;;;;;;-145.23;100.00;58621.06;4964068;28;20234;-56
2022/09/30 05:23:58;;;;;;;6.53;5.93;;;;;;;-145.23;100.00;58621.06;4960690;28;20243;-57
2022/09/30 05:26:25;;;;;;;6.80;6.10;;;;;;;-145.23;100.00;58621.06;4963384;28;20243;-57
2022/09/30 05:28:51;;;;;;;6.97;6.23;;;;;;;-145.23;100.00;58621.06;4961621;28;20326;-57
2022/09/30 05:31:19;;;;;;;7.77;6.57;;;;;;;-145.23;100.00;58621.06;4962788;28;20242;-57
2022/09/30 05:33:48;;;;;;;7.20;6.50;;;;;;;-145.23;100.00;58621.06;4960770;28;20231;-57
2022/09/30 05:36:15;;;;;;;7.33;6.63;;;;;;;-145.23;100.00;58621.06;4960723;28;20285;-57
2022/09/30 05:38:42;;;;;;;7.63;6.90;;;;;;;-145.23;100.00;58621.06;4963642;28;20248;-57
2022/09/30 05:41:10;;;;;;;8.63;7.23;;;;;;;-145.23;100.00;58621.06;4964506;28;20234;-57
2022/09/30 05:43:38;;;;;;;8.83;5.77;;;;;;;-145.23;100.00;58621.06;4963866;28;20234;-57
2022/09/30 05:46:04;;;;;;;12.63;6.63;;;;;;;-145.23;100.00;58621.06;4959737;28;20238;-57
2022/09/30 05:48:31;;;;;;;7.00;6.30;;;;;;;-145.23;100.00;58621.06;4963911;28;20237;-57
2022/09/30 05:51:00;;;;;;;9.37;7.73;;;;;;;-145.23;100.00;58621.06;4964690;28;20321;-57
2022/09/30 05:53:27;;;;;;;8.27;7.47;;;;;;;-145.23;100.00;58621.06;4954647;28;20274;-58
2022/09/30 05:55:54;;;;;;;13.67;7.60;;;;;;;-145.23;100.00;58621.06;4957659;28;20312;-57
2022/09/30 05:58:21;;;;;;;8.57;7.67;;;;;;;-145.23;100.00;58621.06;4963386;28;20241;-57
2022/09/30 06:00:49;;;;;;;8.83;7.23;;;;;;;-145.23;100.00;58621.06;4961523;28;20234;-56
2022/09/30 06:03:16;;;;;;;10.30;6.83;;;;;;;-145.23;100.00;58621.06;4954334;28;20338;-56
2022/09/30 06:05:44;;;;;;;9.33;7.47;;;;;;;-145.23;100.00;58621.06;4962427;28;20901;-57
2022/09/30 06:08:13;;;;;;;7.87;6.97;;;;;;;-145.23;100.00;58621.06;4960108;28;20795;-57
2022/09/30 06:10:41;;;;;;;9.07;7.17;;;;;;;-145.23;100.00;58621.06;4957471;28;20235;-56
2022/09/30 06:13:08;;;;;;;13.03;7.33;;;;;;;-145.23;100.00;58621.06;4962436;28;20234;-57
2022/09/30 06:15:35;;;;;;;7.50;6.80;;;;;;;-145.23;100.00;58621.06;4963030;28;20249;-57
2022/09/30 06:18:02;;;;;;;9.47;8.53;;;;;;;-145.23;100.00;58621.06;4960362;28;20234;-56
2022/09/30 06:20:30;;;;;;;7.43;6.57;;;;;;;-145.23;100.00;58621.06;4962914;28;20250;-57
2022/09/30 06:22:59;;;;;;;8.17;7.33;;;;;;;-145.23;100.00;58621.06;4961427;28;20286;-57
2022/09/30 06:25:28;;;;;;;8.10;7.30;;;;;;;-145.23;100.00;58621.06;4963018;28;20226;-57
2022/09/30 06:27:55;;;;;;;8.40;7.67;;;;;;;-145.23;100.00;58621.06;4959665;28;20380;-57
2022/09/30 06:30:22;;;;;;;8.50;7.70;;;;;;;-145.23;100.00;58621.06;4957941;28;20752;-57
2022/09/30 06:32:49;;;;;;;8.20;7.40;;;;;;;-145.23;100.00;58621.06;4951417;28;20712;-57
2022/09/30 06:35:18;;;;;;;7.87;7.13;;;;;;;-145.23;100.00;58621.06;4956896;28;20239;-57
2022/09/30 06:37:45;;;;;;;9.40;7.93;;;;;;;-145.23;100.00;58621.06;4954672;28;20298;-57
2022/09/30 06:40:11;;;;;;;8.50;7.50;;;;;;;-145.23;100.00;58621.06;4959027;28;20230;-57
2022/09/30 06:42:40;;;;;;;7.67;6.90;;;;;;;-145.23;100.00;58621.06;4956492;28;20227;-57
2022/09/30 06:45:08;;;;;;;9.47;8.50;;;;;;;-145.23;100.00;58621.06;4955979;28;20234;-56
2022/09/30 06:47:35;;;;;;;8.13;6.83;;;;;;;-145.23;100.00;58621.06;4951600;28;20325;-57
2022/09/30 06:50:02;;;;;;;8.33;7.13;;;;;;;-145.23;100.00;58621.06;4958191;28;20297;-58
2022/09/30 06:52:29;;;;;;;9.10;7.17;;;;;;;-145.23;100.00;58621.06;4957890;28;20239;-57
2022/09/30 06:54:56;;;;;;;10.17;7.67;;;;;;;-145.23;100.00;58621.06;4952140;28;20297;-57
2022/09/30 06:57:23;;;;;;;9.10;8.03;;;;;;;-145.23;100.00;58621.06;4959515;28;20269;-57
2022/09/30 06:59:52;;;;;;;9.53;7.63;;;;;;;-145.23;100.00;58621.06;4954822;28;20920;-56
2022/09/30 07:02:18;;;;;;;10.80;8.37;;;;;;;-145.23;100.00;58621.06;4954533;28;20235;-58
2022/09/30 07:04:46;;;;;;;10.50;7.70;;;;;;;-145.23;100.00;58621.06;4960778;28;20242;-57
2022/09/30 07:07:13;;;;;;;16.13;8.83;;;;;;;-145.23;100.00;58621.06;4958833;28;20241;-57
2022/09/30 07:09:42;;;;;;;8.57;7.73;;;;;;;-145.23;100.00;58621.06;4946774;28;20235;-57
2022/09/30 07:12:09;;;;;;;11.33;7.97;;;;;;;-145.23;100.00;58621.06;4956020;28;20232;-57
2022/09/30 07:14:36;;;;;;;9.17;7.23;;;;;;;-145.23;100.00;58621.06;4959530;28;20633;-57
2022/09/30 07:17:05;;;;;;;8.90;8.00;;;;;;;-145.23;100.00;58621.06;4958724;28;20228;-56
2022/09/30 07:19:33;;;;;;;8.80;7.73;;;;;;;-145.23;100.00;58621.06;4960027;28;20666;-58
2022/09/30 07:22:26;;;;;;;8.47;7.77;;;;;;;-145.23;100.00;58621.06;4961178;28;20234;-58
2022/09/30 07:24:47;;;;;;;9.60;8.07;;;;;;;-145.23;100.00;58621.06;4958255;28;20859;-57
2022/09/30 07:27:15;;;;;;;10.40;9.30;;;;;;;-145.23;100.00;58621.06;4951406;28;20230;-58
2022/09/30 07:29:42;;;;;;;11.60;7.90;;;;;;;-145.23;100.00;58621.06;4958361;28;20245;-57
2022/09/30 07:32:10;;;;;;;12.67;8.77;;;;;;;-145.23;100.00;58621.06;4947951;28;20247;-58
2022/09/30 07:34:41;;;;;;;11.03;9.30;;;;;;;-145.23;100.00;58621.06;4957654;28;20242;-58
2022/09/30 07:37:08;;;;;;;9.77;8.87;;;;;;;-145.23;100.00;58621.06;4962140;28;20931;-58
2022/09/30 07:39:35;;;;;;;10.73;9.60;;;;;;;-145.23;100.00;58621.06;4961594;28;20314;-57
2022/09/30 07:42:02;;;;;;;10.13;9.10;;;;;;;-145.23;100.00;58621.06;4956437;28;20238;-58
2022/09/30 07:44:29;;;;;;;11.13;9.33;;;;;;;-145.23;100.00;58621.06;4953490;28;20242;-57
2022/09/30 07:46:57;;;;;;;9.53;8.07;;;;;;;-145.23;100.00;58621.06;4956029;28;20325;-57
2022/09/30 07:49:25;;;;;;;9.53;8.53;;;;;;;-145.23;100.00;58621.06;4957631;28;20712;-57
2022/09/30 07:51:54;;;;;;;10.53;8.70;;;;;;;-145.23;100.00;58621.06;4956047;28;20807;-57
2022/09/30 07:54:23;;;;;;;11.37;9.57;;;;;;;-145.23;100.00;58621.06;4956035;28;20378;-57
2022/09/30 07:56:51;;;;;;;9.37;8.50;;;;;;;-145.23;100.00;58621.06;4962821;28;20238;-57
2022/09/30 07:59:19;;;;;;;14.37;9.10;;;;;;;-145.23;100.00;58621.06;4956775;28;20226;-57
2022/09/30 08:01:46;;;;;;;13.73;9.70;;;;;;;-145.23;100.00;58621.06;4959536;28;20802;-57
2022/09/30 08:04:17;;;;;;;11.50;10.27;;;;;;;-145.23;100.00;58621.06;4960923;28;20243;-57
2022/09/30 08:06:47;;;;;;;10.70;9.53;;;;;;;-145.23;100.00;58621.06;4961494;28;20230;-57
2022/09/30 08:09:16;;;;;;;9.50;8.57;;;;;;;-145.23;100.00;58621.06;4958286;28;20265;-57
2022/09/30 08:11:43;;;;;;;13.27;9.27;;;;;;;-145.23;100.00;58621.06;4955291;28;20667;-57
2022/09/30 08:14:13;;;;;;;8.70;7.90;;;;;;;-145.23;100.00;58621.06;4954239;28;20241;-57
2022/09/30 08:16:41;;;;;;;9.38;8.43;;;;;;;-145.23;100.00;58621.06;4953673;28;20366;-56
2022/09/30 08:19:07;;;;;;;11.43;9.05;;;;;;;-145.23;100.00;58621.06;4954596;28;20292;-56
2022/09/30 08:21:34;;;;;;;10.93;9.25;;;;;;;-145.23;100.00;58621.06;4961400;28;21313;-57
2022/09/30 08:24:03;;;;;;;10.85;9.77;;;;;;;-145.23;100.00;58621.06;4961009;28;20337;-57
2022/09/30 08:26:30;;;;;;;11.55;9.55;;;;;;;-145.23;100.00;58621.06;4963653;28;20230;-57
2022/09/30 08:28:57;;;;;;;17.08;10.32;;;;;;;-145.23;100.00;58621.06;4965694;28;20253;-58
2022/09/30 08:31:24;;;;;;;9.77;8.48;;;;;;;-145.23;100.00;58621.06;4967246;28;20246;-57
2022/09/30 08:33:54;;;;;;;11.30;10.18;;;;;;;-145.23;100.00;58621.06;4961511;28;20331;-57
2022/09/30 08:36:22;;;;;;;10.35;9.30;;;;;;;-145.23;100.00;58621.06;4967297;28;20246;-57
2022/09/30 08:38:50;;;;;;;11.10;9.52;;;;;;;-145.23;100.00;58621.06;4960990;28;20222;-57
2022/09/30 08:41:27;;;;;;;8.57;7.78;;;;;;;-145.23;100.00;58621.06;4967264;28;20237;-57
2022/09/30 08:44:04;;;;;;;11.43;9.35;;;;;;;-145.23;100.00;58621.06;4962781;28;20238;-57
2022/09/30 08:46:40;;;;;;;9.32;8.23;;;;;;;-145.23;100.00;58621.06;4964485;28;20292;-57
2022/09/30 08:49:20;;;;;;;9.70;8.65;;;;;;;-145.23;100.00;58621.06;4949013;28;20325;-56
2022/09/30 08:51:48;;;;;;;10.60;9.50;;;;;;;-145.23;100.00;58621.06;4961881;28;20285;-56
2022/09/30 08:54:18;;;;;;;12.55;9.25;;;;;;;-145.23;100.00;58621.06;4960915;28;20249;-57
2022/09/30 08:56:46;;;;;;;10.20;9.20;;;;;;;-145.23;100.00;58621.06;4959014;28;20321;-57
2022/09/30 08:59:23;;;;;;;9.57;8.57;;;;;;;-145.23;100.00;58621.06;4963298;28;20713;-57
2022/09/30 09:01:51;;;;;;;11.07;9.48;;;;;;;-145.23;100.00;58621.06;4962782;28;20984;-56
2022/09/30 09:04:18;;;;;;;8.95;8.00;;;;;;;-145.23;100.00;58621.06;4960139;28;20301;-57
2022/09/30 09:06:51;;;;;;;13.98;8.90;;;;;;;-145.23;100.00;58621.06;4956676;28;20231;-57
2022/09/30 09:09:37;;;;;;;10.27;8.65;;;;;;;-145.23;100.00;58621.06;4956752;28;21029;-57
2022/09/30 09:12:14;;;;;;;8.57;7.75;;;;;;;-145.23;100.00;58621.06;4954046;28;20298;-57
2022/09/30 09:14:51;;;;;;;8.93;8.02;;;;;;;-145.23;100.00;58621.06;4961153;28;20250;-56
2022/09/30 09:17:32;;;;;;;10.63;9.07;;;;;;;-145.23;100.00;58621.06;4962216;28;20338;-57
2022/09/30 09:20:04;;;;;;;8.68;7.28;;;;;;;-145.23;100.00;58621.06;4964191;28;20690;-56
2022/09/30 09:22:32;;;;;;;10.30;8.63;;;;;;;-145.23;100.00;58621.06;4964290;28;20234;-57
2022/09/30 09:25:00;;;;;;;8.50;7.65;;;;;;;-145.23;100.00;58621.06;4961697;28;20249;-58
2022/09/30 09:27:43;;;;;;;9.05;8.15;;;;;;;-145.23;100.00;58621.06;4955653;28;20747;-56
2022/09/30 09:30:15;;;;;;;9.25;7.38;;;;;;;-145.23;100.00;58621.06;4960235;28;20230;-58
2022/09/30 09:32:42;;;;;;;10.23;8.05;;;;;;;-145.23;100.00;58621.06;4958302;28;20230;-57
2022/09/30 09:35:14;;;;;;;8.32;7.40;;;;;;;-145.23;100.00;58621.06;4959105;28;20787;-57
2022/09/30 09:40:41;;;;;;;8.38;7.57;;;;;;;-145.23;100.00;58621.06;4957066;28;20567;-57
2022/09/30 09:43:17;;;;;;;8.45;7.53;;;;;;;-145.23;100.00;58621.06;4962309;28;20234;-56
2022/09/30 09:45:51;;;;;;;8.43;7.60;;;;;;;-145.23;100.00;58621.06;4963513;28;20697;-58
2022/09/30 09:48:18;;;;;;;9.80;7.00;;;;;;;-145.23;100.00;58621.06;4959594;28;20249;-57
2022/09/30 09:50:53;;;;;;;8.25;6.25;;;;;;;-145.23;100.00;58621.06;4960643;28;20309;-57
2022/09/30 09:53:40;;;;;;;8.75;6.35;;;;;;;-145.23;100.00;58621.06;4958056;28;20230;-57
2022/09/30 09:56:17;;;;;;;7.13;6.43;;;;;;;-145.23;100.00;58621.06;4958715;28;20242;-57
2022/09/30 09:59:11;;;;;;;9.23;6.28;;;;;;;-145.23;100.00;58621.06;4960132;28;20227;-58
2022/09/30 10:01:40;;;;;;;6.70;6.07;;;;;;;-145.23;100.00;58621.06;4961438;28;20832;-56
2022/09/30 10:04:20;;;;;;;7.30;6.70;;;;;;;-145.23;100.00;58621.06;4956965;28;20800;-58
2022/09/30 10:06:53;;;;;;;7.13;6.53;;;;;;;-145.23;100.00;58621.06;4961135;28;20763;-57
2022/09/30 10:09:29;;;;;;;6.55;5.97;;;;;;;-145.23;100.00;58621.06;4957124;28;20948;-57
2022/09/30 10:12:29;;;;;;;7.10;6.07;;;;;;;-145.23;100.00;58621.06;4957220;28;20639;-57
2022/09/30 10:15:21;;;;;;;6.05;5.47;;;;;;;-145.23;100.00;58621.06;4913466;28;20239;-57
2022/09/30 10:17:53;;;;;;;7.78;5.55;;;;;;;-145.23;100.00;58621.06;4961765;28;20222;-57
2022/09/30 10:20:27;;;;;;;5.88;5.38;;;;;;;-145.23;100.00;58621.06;4961943;28;20708;-57
2022/09/30 10:23:01;;;;;;;6.13;5.63;;;;;;;-145.23;100.00;58621.06;4957585;28;20268;-57
2022/09/30 10:25:28;;;;;;;5.43;5.03;;;;;;;-145.23;100.00;58621.06;4959986;28;20321;-57
2022/09/30 10:27:59;;;;;;;5.25;4.85;;;;;;;-145.23;100.00;58621.06;4962412;28;20238;-57
2022/09/30 10:30:40;;;;;;;7.35;5.18;;;;;;;-145.23;100.00;58621.06;4957888;28;20235;-57
2022/09/30 10:33:22;;;;;;;5.85;5.20;;;;;;;-145.23;100.00;58621.06;4964277;28;20872;-57
2022/09/30 10:36:06;;;;;;;4.18;3.75;;;;;;;-145.23;100.00;58621.06;4955249;28;20242;-57
2022/09/30 10:38:33;;;;;;;4.85;4.20;;;;;;;-145.23;100.00;58621.06;4958781;28;20552;-57
2022/09/30 10:41:01;;;;;;;6.35;4.65;;;;;;;-145.23;100.00;58621.06;4956164;28;20250;-57
2022/09/30 10:43:32;;;;;;;6.18;5.53;;;;;;;-145.23;100.00;58621.06;4959589;28;20285;-57
2022/09/30 10:46:02;;;;;;;5.60;5.10;;;;;;;-145.23;100.00;58621.06;4957206;28;20234;-58
2022/09/30 10:48:33;;;;;;;8.73;4.70;;;;;;;-145.23;100.00;58621.06;4959669;28;20243;-57
2022/09/30 10:51:00;;;;;;;6.38;4.78;;;;;;;-145.23;100.00;58621.06;4956739;28;20235;-56
2022/09/30 10:53:29;;;;;;;6.18;5.30;;;;;;;-145.23;100.00;58621.06;4956785;28;20245;-57
2022/09/30 10:55:56;;;;;;;5.65;4.93;;;;;;;-145.23;100.00;58621.06;4962199;28;20245;-57
2022/09/30 10:58:28;;;;;;;4.95;4.55;;;;;;;-145.23;100.00;58621.06;4957045;28;20238;-56
2022/09/30 11:01:00;;;;;;;5.45;4.57;;;;;;;-145.23;100.00;58621.06;4955809;28;20230;-56
2022/09/30 11:03:33;;;;;;;4.97;3.78;;;;;;;-145.23;100.00;58621.06;4954989;28;20712;-56
2022/09/30 11:06:00;;;;;;;5.65;4.95;;;;;;;-145.23;100.00;58621.06;4959717;28;20266;-56
2022/09/30 11:08:29;;;;;;;3.83;3.53;;;;;;;-145.23;100.00;58621.06;4958468;28;20235;-56
2022/09/30 11:11:00;;;;;;;7.00;3.85;;;;;;;-145.23;100.00;58621.06;4958165;28;20322;-57
2022/09/30 11:13:32;;;;;;;5.15;4.25;;;;;;;-145.23;100.00;58621.06;4959103;28;20244;-56
2022/09/30 11:16:03;;;;;;;3.53;3.22;;;;;;;-145.23;100.00;58621.06;4958257;28;20235;-59
2022/09/30 11:18:37;;;;;;;5.50;4.22;;;;;;;-145.23;100.00;58621.06;4958807;28;20584;-56
2022/09/30 11:21:10;;;;;;;3.88;3.50;;;;;;;-145.23;100.00;58621.06;4953756;28;20700;-59
2022/09/30 11:23:38;;;;;;;4.25;3.85;;;;;;;-145.23;100.00;58621.06;4958717;28;20239;-57
2022/09/30 11:26:09;;;;;;;5.15;3.85;;;;;;;-145.23;100.00;58621.06;4958631;28;20626;-57